sensor_id;sensor_type;location;lat;lon;timestamp;pressure;altitude;pressure_sealevel;temperature;humidity
17311;BME280;8773;43.300;0.394;2023-08-24T00:02:18;99330.31;;;27.00;64.86
17311;BME280;8773;43.300;0.394;2023-08-24T00:04:45;99327.84;;;26.98;65.25
17311;BME280;8773;43.300;0.394;2023-08-24T00:07:13;99321.78;;;26.81;66.35
17311;BME280;8773;43.300;0.394;2023-08-24T00:09:40;99322.59;;;26.86;65.56
17311;BME280;8773;43.300;0.394;2023-08-24T00:12:08;99317.66;;;26.78;66.11
17311;BME280;8773;43.300;0.394;2023-08-24T00:14:36;99316.56;;;26.79;65.91
17311;BME280;8773;43.300;0.394;2023-08-24T00:17:03;99312.19;;;26.88;65.44
17311;BME280;8773;43.300;0.394;2023-08-24T00:19:32;99305.63;;;26.84;65.80
17311;BME280;8773;43.300;0.394;2023-08-24T00:21:59;99309.44;;;26.73;65.39
17311;BME280;8773;43.300;0.394;2023-08-24T00:24:29;99310.59;;;26.93;64.51
17311;BME280;8773;43.300;0.394;2023-08-24T00:26:57;99308.06;;;26.71;64.98
17311;BME280;8773;43.300;0.394;2023-08-24T00:29:24;99316.81;;;26.57;65.65
17311;BME280;8773;43.300;0.394;2023-08-24T00:31:52;99304.50;;;26.75;64.83
17311;BME280;8773;43.300;0.394;2023-08-24T00:34:19;99305.06;;;26.62;65.39
17311;BME280;8773;43.300;0.394;2023-08-24T00:36:48;99300.06;;;26.39;65.56
17311;BME280;8773;43.300;0.394;2023-08-24T00:39:15;99302.25;;;26.32;65.96
17311;BME280;8773;43.300;0.394;2023-08-24T00:41:42;99302.16;;;26.11;66.65
17311;BME280;8773;43.300;0.394;2023-08-24T00:44:10;99302.53;;;26.40;65.80
17311;BME280;8773;43.300;0.394;2023-08-24T00:46:37;99293.53;;;26.50;65.36
17311;BME280;8773;43.300;0.394;2023-08-24T00:49:05;99300.66;;;26.56;65.34
17311;BME280;8773;43.300;0.394;2023-08-24T00:51:32;99301.69;;;26.35;66.36
17311;BME280;8773;43.300;0.394;2023-08-24T00:54:01;99307.06;;;26.09;66.97
17311;BME280;8773;43.300;0.394;2023-08-24T00:56:28;99295.38;;;26.24;66.51
17311;BME280;8773;43.300;0.394;2023-08-24T00:58:56;99301.41;;;26.31;66.47
17311;BME280;8773;43.300;0.394;2023-08-24T01:01:24;99299.94;;;26.03;67.23
17311;BME280;8773;43.300;0.394;2023-08-24T01:03:52;99291.78;;;26.18;66.70
17311;BME280;8773;43.300;0.394;2023-08-24T01:06:19;99279.19;;;26.27;65.90
17311;BME280;8773;43.300;0.394;2023-08-24T01:08:47;99286.13;;;26.40;65.51
17311;BME280;8773;43.300;0.394;2023-08-24T01:11:22;99285.56;;;26.38;64.93
17311;BME280;8773;43.300;0.394;2023-08-24T01:13:58;99278.34;;;26.07;66.10
17311;BME280;8773;43.300;0.394;2023-08-24T01:16:28;99287.44;;;26.22;65.99
17311;BME280;8773;43.300;0.394;2023-08-24T01:18:57;99281.94;;;26.22;65.40
17311;BME280;8773;43.300;0.394;2023-08-24T01:21:26;99282.72;;;26.08;65.68
17311;BME280;8773;43.300;0.394;2023-08-24T01:23:59;99281.00;;;25.91;65.76
17311;BME280;8773;43.300;0.394;2023-08-24T01:26:31;99274.13;;;25.84;65.55
17311;BME280;8773;43.300;0.394;2023-08-24T01:28:58;99283.03;;;26.16;64.71
17311;BME280;8773;43.300;0.394;2023-08-24T01:31:27;99280.38;;;26.42;63.72
17311;BME280;8773;43.300;0.394;2023-08-24T01:33:54;99280.09;;;26.43;63.95
17311;BME280;8773;43.300;0.394;2023-08-24T01:36:21;99279.31;;;26.58;62.96
17311;BME280;8773;43.300;0.394;2023-08-24T01:38:56;99282.06;;;26.68;62.94
17311;BME280;8773;43.300;0.394;2023-08-24T01:41:28;99284.53;;;26.65;62.86
17311;BME280;8773;43.300;0.394;2023-08-24T01:44:00;99276.03;;;26.61;63.23
17311;BME280;8773;43.300;0.394;2023-08-24T01:46:29;99281.50;;;26.56;63.92
17311;BME280;8773;43.300;0.394;2023-08-24T01:48:58;99272.75;;;26.59;63.05
17311;BME280;8773;43.300;0.394;2023-08-24T01:51:26;99272.72;;;26.49;63.46
17311;BME280;8773;43.300;0.394;2023-08-24T01:53:54;99267.78;;;26.41;63.37
17311;BME280;8773;43.300;0.394;2023-08-24T01:56:21;99274.31;;;26.35;64.17
17311;BME280;8773;43.300;0.394;2023-08-24T01:58:49;99271.81;;;26.23;63.91
17311;BME280;8773;43.300;0.394;2023-08-24T02:01:18;99268.81;;;26.19;64.46
17311;BME280;8773;43.300;0.394;2023-08-24T02:03:45;99273.19;;;26.20;64.36
17311;BME280;8773;43.300;0.394;2023-08-24T02:06:13;99273.41;;;26.04;65.25
17311;BME280;8773;43.300;0.394;2023-08-24T02:08:40;99265.47;;;26.02;64.93
17311;BME280;8773;43.300;0.394;2023-08-24T02:11:07;99263.53;;;26.03;65.02
17311;BME280;8773;43.300;0.394;2023-08-24T02:13:35;99259.69;;;25.93;65.52
17311;BME280;8773;43.300;0.394;2023-08-24T02:16:03;99264.59;;;25.91;65.21
17311;BME280;8773;43.300;0.394;2023-08-24T02:18:32;99256.09;;;25.78;65.54
17311;BME280;8773;43.300;0.394;2023-08-24T02:21:00;99252.75;;;25.23;67.12
17311;BME280;8773;43.300;0.394;2023-08-24T02:23:27;99257.28;;;25.55;66.17
17311;BME280;8773;43.300;0.394;2023-08-24T02:25:56;99255.94;;;25.57;66.02
17311;BME280;8773;43.300;0.394;2023-08-24T02:28:23;99249.38;;;25.58;66.27
17311;BME280;8773;43.300;0.394;2023-08-24T02:30:51;99247.16;;;25.50;66.31
17311;BME280;8773;43.300;0.394;2023-08-24T02:33:18;99247.13;;;25.45;66.11
17311;BME280;8773;43.300;0.394;2023-08-24T02:35:48;99244.34;;;25.35;66.32
17311;BME280;8773;43.300;0.394;2023-08-24T02:38:15;99250.66;;;25.36;66.38
17311;BME280;8773;43.300;0.394;2023-08-24T02:40:43;99248.53;;;25.53;65.88
17311;BME280;8773;43.300;0.394;2023-08-24T02:43:10;99245.06;;;25.68;64.87
17311;BME280;8773;43.300;0.394;2023-08-24T02:45:38;99248.84;;;25.62;64.94
17311;BME280;8773;43.300;0.394;2023-08-24T02:48:06;99248.59;;;25.63;65.43
17311;BME280;8773;43.300;0.394;2023-08-24T02:50:33;99240.34;;;25.53;65.63
17311;BME280;8773;43.300;0.394;2023-08-24T02:53:02;99244.66;;;25.44;65.51
17311;BME280;8773;43.300;0.394;2023-08-24T02:55:32;99241.16;;;25.53;65.02
17311;BME280;8773;43.300;0.394;2023-08-24T02:57:59;99240.81;;;25.40;65.83
17311;BME280;8773;43.300;0.394;2023-08-24T03:00:26;99242.19;;;25.42;65.30
17311;BME280;8773;43.300;0.394;2023-08-24T03:02:54;99246.47;;;25.23;65.99
17311;BME280;8773;43.300;0.394;2023-08-24T03:05:21;99237.97;;;25.19;66.15
17311;BME280;8773;43.300;0.394;2023-08-24T03:07:49;99237.72;;;24.89;67.14
17311;BME280;8773;43.300;0.394;2023-08-24T03:10:18;99233.91;;;24.90;67.15
17311;BME280;8773;43.300;0.394;2023-08-24T03:12:45;99234.84;;;24.69;67.67
17311;BME280;8773;43.300;0.394;2023-08-24T03:15:13;99234.47;;;24.60;68.05
17311;BME280;8773;43.300;0.394;2023-08-24T03:17:40;99231.28;;;24.68;67.64
17311;BME280;8773;43.300;0.394;2023-08-24T03:20:09;99215.25;;;24.77;66.83
17311;BME280;8773;43.300;0.394;2023-08-24T03:22:36;99234.75;;;24.90;66.56
17311;BME280;8773;43.300;0.394;2023-08-24T03:25:05;99231.41;;;24.83;66.38
17311;BME280;8773;43.300;0.394;2023-08-24T03:27:34;99233.06;;;24.84;66.67
17311;BME280;8773;43.300;0.394;2023-08-24T03:30:01;99233.41;;;24.93;66.52
17311;BME280;8773;43.300;0.394;2023-08-24T03:32:29;99232.84;;;24.96;66.30
17311;BME280;8773;43.300;0.394;2023-08-24T03:34:58;99244.06;;;25.00;65.80
17311;BME280;8773;43.300;0.394;2023-08-24T03:37:26;99234.19;;;24.88;66.32
17311;BME280;8773;43.300;0.394;2023-08-24T03:39:53;99244.25;;;24.56;66.84
17311;BME280;8773;43.300;0.394;2023-08-24T03:42:20;99247.97;;;24.72;66.41
17311;BME280;8773;43.300;0.394;2023-08-24T03:44:49;99239.25;;;24.75;66.84
17311;BME280;8773;43.300;0.394;2023-08-24T03:47:17;99241.00;;;24.86;66.12
17311;BME280;8773;43.300;0.394;2023-08-24T03:49:44;99234.47;;;24.92;65.18
17311;BME280;8773;43.300;0.394;2023-08-24T03:52:11;99233.63;;;24.86;65.29
17311;BME280;8773;43.300;0.394;2023-08-24T03:54:41;99232.31;;;24.94;65.16
17311;BME280;8773;43.300;0.394;2023-08-24T03:57:09;99229.84;;;24.92;64.90
17311;BME280;8773;43.300;0.394;2023-08-24T03:59:36;99235.31;;;24.92;65.30
17311;BME280;8773;43.300;0.394;2023-08-24T04:02:05;99236.94;;;24.93;64.75
17311;BME280;8773;43.300;0.394;2023-08-24T04:04:32;99234.19;;;24.88;65.18
17311;BME280;8773;43.300;0.394;2023-08-24T04:07:00;99230.94;;;24.91;65.13
17311;BME280;8773;43.300;0.394;2023-08-24T04:09:27;99228.19;;;24.91;64.85
17311;BME280;8773;43.300;0.394;2023-08-24T04:11:55;99228.16;;;24.86;65.15
17311;BME280;8773;43.300;0.394;2023-08-24T04:14:22;99240.94;;;24.81;64.71
17311;BME280;8773;43.300;0.394;2023-08-24T04:16:49;99241.88;;;24.97;64.00
17311;BME280;8773;43.300;0.394;2023-08-24T04:19:18;99230.31;;;24.84;64.98
17311;BME280;8773;43.300;0.394;2023-08-24T04:21:46;99239.25;;;24.75;63.69
17311;BME280;8773;43.300;0.394;2023-08-24T04:24:13;99238.03;;;24.92;63.17
17311;BME280;8773;43.300;0.394;2023-08-24T04:26:40;99243.50;;;24.98;63.62
17311;BME280;8773;43.300;0.394;2023-08-24T04:29:08;99237.47;;;24.90;63.71
17311;BME280;8773;43.300;0.394;2023-08-24T04:31:38;99241.38;;;25.05;62.92
17311;BME280;8773;43.300;0.394;2023-08-24T04:34:06;99241.16;;;25.06;63.37
17311;BME280;8773;43.300;0.394;2023-08-24T04:36:35;99240.47;;;24.89;63.14
17311;BME280;8773;43.300;0.394;2023-08-24T04:39:02;99243.94;;;24.79;64.10
17311;BME280;8773;43.300;0.394;2023-08-24T04:41:29;99242.69;;;24.92;62.82
17311;BME280;8773;43.300;0.394;2023-08-24T04:43:57;99242.94;;;24.90;62.99
17311;BME280;8773;43.300;0.394;2023-08-24T04:46:24;99243.50;;;24.92;62.80
17311;BME280;8773;43.300;0.394;2023-08-24T04:48:52;99237.34;;;24.75;62.94
17311;BME280;8773;43.300;0.394;2023-08-24T04:51:19;99244.97;;;24.73;63.47
17311;BME280;8773;43.300;0.394;2023-08-24T04:53:48;99236.53;;;24.75;63.36
17311;BME280;8773;43.300;0.394;2023-08-24T04:56:15;99233.75;;;24.70;63.06
17311;BME280;8773;43.300;0.394;2023-08-24T04:58:52;99242.25;;;24.73;63.81
17311;BME280;8773;43.300;0.394;2023-08-24T05:01:19;99243.69;;;24.54;63.97
17311;BME280;8773;43.300;0.394;2023-08-24T05:03:47;99246.47;;;24.59;64.20
17311;BME280;8773;43.300;0.394;2023-08-24T05:06:14;99244.31;;;24.61;64.31
17311;BME280;8773;43.300;0.394;2023-08-24T05:08:42;99247.66;;;24.68;63.56
17311;BME280;8773;43.300;0.394;2023-08-24T05:11:16;99240.16;;;24.53;63.50
17311;BME280;8773;43.300;0.394;2023-08-24T05:13:44;99243.69;;;24.54;63.82
17311;BME280;8773;43.300;0.394;2023-08-24T05:16:12;99244.66;;;24.70;62.72
17311;BME280;8773;43.300;0.394;2023-08-24T05:18:40;99238.34;;;24.64;62.14
17311;BME280;8773;43.300;0.394;2023-08-24T05:21:08;99245.13;;;24.61;63.08
17311;BME280;8773;43.300;0.394;2023-08-24T05:23:35;99250.09;;;24.65;62.11
17311;BME280;8773;43.300;0.394;2023-08-24T05:26:02;99250.38;;;24.68;62.18
17311;BME280;8773;43.300;0.394;2023-08-24T05:28:31;99250.44;;;24.73;61.82
17311;BME280;8773;43.300;0.394;2023-08-24T05:30:59;99251.00;;;24.75;62.29
17311;BME280;8773;43.300;0.394;2023-08-24T05:33:27;99242.13;;;24.90;61.73
17311;BME280;8773;43.300;0.394;2023-08-24T05:35:54;99254.94;;;24.89;61.17
17311;BME280;8773;43.300;0.394;2023-08-24T05:38:21;99252.25;;;24.94;60.59
17311;BME280;8773;43.300;0.394;2023-08-24T05:40:49;99250.34;;;24.95;59.86
17311;BME280;8773;43.300;0.394;2023-08-24T05:43:17;99255.56;;;25.02;60.39
17311;BME280;8773;43.300;0.394;2023-08-24T05:45:47;99253.06;;;24.95;59.85
17311;BME280;8773;43.300;0.394;2023-08-24T05:48:15;99263.63;;;24.81;61.71
17311;BME280;8773;43.300;0.394;2023-08-24T05:50:43;99253.88;;;24.90;60.87
17311;BME280;8773;43.300;0.394;2023-08-24T05:53:10;99259.31;;;25.22;60.41
17311;BME280;8773;43.300;0.394;2023-08-24T05:55:38;99256.75;;;25.11;60.11
17311;BME280;8773;43.300;0.394;2023-08-24T05:58:06;99255.81;;;24.95;60.65
17311;BME280;8773;43.300;0.394;2023-08-24T06:00:33;99255.41;;;24.81;60.24
17311;BME280;8773;43.300;0.394;2023-08-24T06:03:02;99254.94;;;24.89;60.32
17311;BME280;8773;43.300;0.394;2023-08-24T06:05:31;99254.66;;;25.23;59.67
17311;BME280;8773;43.300;0.394;2023-08-24T06:07:58;99245.44;;;25.34;59.06
17311;BME280;8773;43.300;0.394;2023-08-24T06:10:26;99247.09;;;25.40;58.96
17311;BME280;8773;43.300;0.394;2023-08-24T06:12:53;99247.94;;;25.46;58.19
17311;BME280;8773;43.300;0.394;2023-08-24T06:15:20;99252.06;;;25.48;58.58
17311;BME280;8773;43.300;0.394;2023-08-24T06:17:48;99248.84;;;25.62;58.20
17311;BME280;8773;43.300;0.394;2023-08-24T06:20:17;99239.19;;;26.01;56.76
17311;BME280;8773;43.300;0.394;2023-08-24T06:22:45;99245.06;;;26.50;55.71
17311;BME280;8773;43.300;0.394;2023-08-24T06:25:13;99231.13;;;26.98;53.28
17311;BME280;8773;43.300;0.394;2023-08-24T06:27:40;99247.72;;;27.57;52.19
17311;BME280;8773;43.300;0.394;2023-08-24T06:30:08;99234.31;;;28.15;50.76
17311;BME280;8773;43.300;0.394;2023-08-24T06:32:36;99228.38;;;28.81;49.26
17311;BME280;8773;43.300;0.394;2023-08-24T06:35:04;99226.97;;;29.65;47.76
17311;BME280;8773;43.300;0.394;2023-08-24T06:37:35;99236.03;;;30.32;45.80
17311;BME280;8773;43.300;0.394;2023-08-24T06:40:03;99240.03;;;30.59;45.04
17311;BME280;8773;43.300;0.394;2023-08-24T06:42:31;99238.88;;;30.78;43.64
17311;BME280;8773;43.300;0.394;2023-08-24T06:44:58;99241.44;;;31.21;42.97
17311;BME280;8773;43.300;0.394;2023-08-24T06:47:26;99245.16;;;31.30;42.02
17311;BME280;8773;43.300;0.394;2023-08-24T06:49:53;99243.44;;;31.75;42.29
17311;BME280;8773;43.300;0.394;2023-08-24T06:52:21;99238.78;;;32.26;41.63
17311;BME280;8773;43.300;0.394;2023-08-24T06:54:49;99244.47;;;32.88;40.66
17311;BME280;8773;43.300;0.394;2023-08-24T06:57:17;99246.06;;;33.33;39.67
17311;BME280;8773;43.300;0.394;2023-08-24T06:59:44;99241.03;;;33.35;38.91
17311;BME280;8773;43.300;0.394;2023-08-24T07:02:12;99247.78;;;33.43;37.85
17311;BME280;8773;43.300;0.394;2023-08-24T07:04:40;99247.22;;;33.72;38.90
17311;BME280;8773;43.300;0.394;2023-08-24T07:07:08;99241.00;;;34.23;37.41
17311;BME280;8773;43.300;0.394;2023-08-24T07:09:35;99245.09;;;34.78;36.55
17311;BME280;8773;43.300;0.394;2023-08-24T07:12:05;99240.22;;;34.66;35.78
17311;BME280;8773;43.300;0.394;2023-08-24T07:14:32;99247.25;;;34.89;35.44
17311;BME280;8773;43.300;0.394;2023-08-24T07:17:00;99244.06;;;35.08;35.40
17311;BME280;8773;43.300;0.394;2023-08-24T07:19:28;99250.41;;;35.34;34.98
17311;BME280;8773;43.300;0.394;2023-08-24T07:21:55;99248.44;;;35.26;35.10
17311;BME280;8773;43.300;0.394;2023-08-24T07:24:23;99249.44;;;35.30;35.12
17311;BME280;8773;43.300;0.394;2023-08-24T07:27:11;99255.81;;;35.69;34.68
17311;BME280;8773;43.300;0.394;2023-08-24T07:29:39;99246.03;;;35.92;34.13
17311;BME280;8773;43.300;0.394;2023-08-24T07:32:06;99245.97;;;36.30;34.22
17311;BME280;8773;43.300;0.394;2023-08-24T07:34:34;99254.19;;;36.48;33.37
17311;BME280;8773;43.300;0.394;2023-08-24T07:37:01;99253.28;;;36.77;32.57
17311;BME280;8773;43.300;0.394;2023-08-24T07:39:29;99244.25;;;36.80;32.36
17311;BME280;8773;43.300;0.394;2023-08-24T07:41:56;99246.16;;;36.88;33.11
17311;BME280;8773;43.300;0.394;2023-08-24T07:44:25;99241.19;;;36.93;32.36
17311;BME280;8773;43.300;0.394;2023-08-24T07:46:52;99237.84;;;37.00;31.36
17311;BME280;8773;43.300;0.394;2023-08-24T07:49:20;99246.97;;;36.88;31.13
17311;BME280;8773;43.300;0.394;2023-08-24T07:51:47;99238.91;;;36.33;32.19
17311;BME280;8773;43.300;0.394;2023-08-24T07:54:15;99239.25;;;36.73;32.18
17311;BME280;8773;43.300;0.394;2023-08-24T07:56:42;99235.78;;;36.76;32.37
17311;BME280;8773;43.300;0.394;2023-08-24T07:59:09;99246.69;;;36.81;32.57
17311;BME280;8773;43.300;0.394;2023-08-24T08:01:38;99240.44;;;36.84;32.49
17311;BME280;8773;43.300;0.394;2023-08-24T08:04:06;99235.25;;;36.62;32.57
17311;BME280;8773;43.300;0.394;2023-08-24T08:06:33;99248.22;;;36.37;33.65
17311;BME280;8773;43.300;0.394;2023-08-24T08:09:01;99252.25;;;36.19;33.17
17311;BME280;8773;43.300;0.394;2023-08-24T08:11:28;99246.19;;;35.96;34.32
17311;BME280;8773;43.300;0.394;2023-08-24T08:13:55;99255.63;;;35.74;34.93
17311;BME280;8773;43.300;0.394;2023-08-24T08:16:23;99259.59;;;35.00;35.95
17311;BME280;8773;43.300;0.394;2023-08-24T08:18:52;99258.47;;;34.93;35.77
17311;BME280;8773;43.300;0.394;2023-08-24T08:21:19;99258.31;;;34.63;36.36
17311;BME280;8773;43.300;0.394;2023-08-24T08:23:49;99249.03;;;34.42;36.82
17311;BME280;8773;43.300;0.394;2023-08-24T08:26:16;99249.34;;;33.75;37.87
17311;BME280;8773;43.300;0.394;2023-08-24T08:28:44;99245.31;;;33.81;38.13
17311;BME280;8773;43.300;0.394;2023-08-24T08:31:12;99247.00;;;33.51;38.39
17311;BME280;8773;43.300;0.394;2023-08-24T08:33:40;99237.88;;;33.51;39.09
17311;BME280;8773;43.300;0.394;2023-08-24T08:36:09;99243.03;;;33.83;38.99
17311;BME280;8773;43.300;0.394;2023-08-24T08:38:37;99239.50;;;33.91;38.97
17311;BME280;8773;43.300;0.394;2023-08-24T08:41:04;99247.75;;;33.83;39.17
17311;BME280;8773;43.300;0.394;2023-08-24T08:43:32;99247.50;;;33.93;38.86
17311;BME280;8773;43.300;0.394;2023-08-24T08:45:59;99243.19;;;33.78;39.52
17311;BME280;8773;43.300;0.394;2023-08-24T08:48:28;99246.78;;;33.87;39.62
17311;BME280;8773;43.300;0.394;2023-08-24T08:50:58;99249.78;;;33.99;38.90
17311;BME280;8773;43.300;0.394;2023-08-24T08:53:27;99253.53;;;34.03;39.00
17311;BME280;8773;43.300;0.394;2023-08-24T08:55:55;99246.69;;;34.09;39.60
17311;BME280;8773;43.300;0.394;2023-08-24T08:58:23;99246.84;;;34.13;39.38
17311;BME280;8773;43.300;0.394;2023-08-24T09:00:52;99240.53;;;34.30;39.71
17311;BME280;8773;43.300;0.394;2023-08-24T09:03:19;99251.00;;;34.41;38.50
17311;BME280;8773;43.300;0.394;2023-08-24T09:05:48;99251.16;;;34.36;39.18
17311;BME280;8773;43.300;0.394;2023-08-24T09:08:16;99246.56;;;34.58;38.28
17311;BME280;8773;43.300;0.394;2023-08-24T09:10:45;99244.78;;;34.62;37.66
17311;BME280;8773;43.300;0.394;2023-08-24T09:13:13;99253.59;;;34.72;37.67
17311;BME280;8773;43.300;0.394;2023-08-24T09:15:40;99248.53;;;34.74;36.81
17311;BME280;8773;43.300;0.394;2023-08-24T09:18:08;99243.66;;;34.89;36.93
17311;BME280;8773;43.300;0.394;2023-08-24T09:20:35;99247.69;;;35.00;36.59
17311;BME280;8773;43.300;0.394;2023-08-24T09:23:03;99246.84;;;35.17;36.66
17311;BME280;8773;43.300;0.394;2023-08-24T09:25:31;99251.88;;;35.23;36.01
17311;BME280;8773;43.300;0.394;2023-08-24T09:28:01;99250.09;;;35.19;37.00
17311;BME280;8773;43.300;0.394;2023-08-24T09:30:32;99248.28;;;35.31;36.13
17311;BME280;8773;43.300;0.394;2023-08-24T09:33:03;99250.56;;;35.21;36.27
17311;BME280;8773;43.300;0.394;2023-08-24T09:35:34;99246.69;;;35.13;36.14
17311;BME280;8773;43.300;0.394;2023-08-24T09:38:15;99247.97;;;35.24;33.90
17311;BME280;8773;43.300;0.394;2023-08-24T09:40:44;99244.84;;;35.34;33.74
17311;BME280;8773;43.300;0.394;2023-08-24T09:43:14;99248.72;;;35.42;33.36
17311;BME280;8773;43.300;0.394;2023-08-24T09:45:48;99251.63;;;35.54;32.86
17311;BME280;8773;43.300;0.394;2023-08-24T09:48:16;99241.81;;;35.57;33.42
17311;BME280;8773;43.300;0.394;2023-08-24T09:50:44;99251.50;;;35.80;33.08
17311;BME280;8773;43.300;0.394;2023-08-24T09:53:15;99248.22;;;35.87;32.68
17311;BME280;8773;43.300;0.394;2023-08-24T09:55:53;99248.00;;;35.92;32.69
17311;BME280;8773;43.300;0.394;2023-08-24T09:58:23;99239.13;;;35.78;31.94
17311;BME280;8773;43.300;0.394;2023-08-24T10:00:51;99234.94;;;35.92;31.53
17311;BME280;8773;43.300;0.394;2023-08-24T10:03:20;99232.81;;;36.19;30.64
17311;BME280;8773;43.300;0.394;2023-08-24T10:05:50;99236.34;;;36.28;31.08
17311;BME280;8773;43.300;0.394;2023-08-24T10:08:27;99231.47;;;36.46;30.34
17311;BME280;8773;43.300;0.394;2023-08-24T10:10:56;99227.13;;;36.36;29.35
17311;BME280;8773;43.300;0.394;2023-08-24T10:13:31;99234.84;;;36.51;29.03
17311;BME280;8773;43.300;0.394;2023-08-24T10:16:03;99227.66;;;36.50;28.34
17311;BME280;8773;43.300;0.394;2023-08-24T10:18:32;99225.69;;;36.51;27.74
17311;BME280;8773;43.300;0.394;2023-08-24T10:21:00;99222.09;;;36.50;28.66
17311;BME280;8773;43.300;0.394;2023-08-24T10:23:29;99222.97;;;36.63;28.07
17311;BME280;8773;43.300;0.394;2023-08-24T10:25:57;99226.34;;;36.68;28.40
17311;BME280;8773;43.300;0.394;2023-08-24T10:28:27;99224.25;;;36.65;27.98
17311;BME280;8773;43.300;0.394;2023-08-24T10:30:58;99221.09;;;36.88;27.94
17311;BME280;8773;43.300;0.394;2023-08-24T10:33:26;99215.09;;;36.98;27.61
17311;BME280;8773;43.300;0.394;2023-08-24T10:35:55;99219.09;;;37.09;27.26
17311;BME280;8773;43.300;0.394;2023-08-24T10:38:24;99223.25;;;37.03;28.50
17311;BME280;8773;43.300;0.394;2023-08-24T10:40:52;99210.03;;;36.46;27.51
17311;BME280;8773;43.300;0.394;2023-08-24T10:43:19;99218.31;;;36.88;28.53
17311;BME280;8773;43.300;0.394;2023-08-24T10:46:01;99213.13;;;37.11;27.48
17311;BME280;8773;43.300;0.394;2023-08-24T10:48:29;99216.28;;;37.09;26.83
17311;BME280;8773;43.300;0.394;2023-08-24T10:51:16;99213.69;;;36.92;25.44
17311;BME280;8773;43.300;0.394;2023-08-24T10:53:45;99200.22;;;36.82;25.00
17311;BME280;8773;43.300;0.394;2023-08-24T10:56:14;99206.59;;;37.27;27.64
17311;BME280;8773;43.300;0.394;2023-08-24T10:58:42;99207.75;;;37.26;26.12
17311;BME280;8773;43.300;0.394;2023-08-24T11:01:16;99203.75;;;37.03;26.14
17311;BME280;8773;43.300;0.394;2023-08-24T11:03:49;99207.19;;;37.33;26.71
17311;BME280;8773;43.300;0.394;2023-08-24T11:06:21;99200.22;;;37.51;26.89
17311;BME280;8773;43.300;0.394;2023-08-24T11:09:05;99201.41;;;37.62;26.41
17311;BME280;8773;43.300;0.394;2023-08-24T11:11:33;99201.66;;;37.00;27.97
17311;BME280;8773;43.300;0.394;2023-08-24T11:14:14;99205.91;;;37.30;26.60
17311;BME280;8773;43.300;0.394;2023-08-24T11:16:44;99190.94;;;37.59;27.95
17311;BME280;8773;43.300;0.394;2023-08-24T11:19:12;99189.72;;;37.97;26.85
17311;BME280;8773;43.300;0.394;2023-08-24T11:21:41;99175.50;;;37.74;26.47
17311;BME280;8773;43.300;0.394;2023-08-24T11:24:09;99188.50;;;37.94;27.50
17311;BME280;8773;43.300;0.394;2023-08-24T11:26:41;99195.94;;;37.78;27.84
17311;BME280;8773;43.300;0.394;2023-08-24T11:29:09;99187.13;;;37.76;27.92
17311;BME280;8773;43.300;0.394;2023-08-24T11:31:37;99189.44;;;37.74;28.52
17311;BME280;8773;43.300;0.394;2023-08-24T11:34:14;99182.47;;;37.80;28.16
17311;BME280;8773;43.300;0.394;2023-08-24T11:36:43;99183.84;;;37.86;27.21
17311;BME280;8773;43.300;0.394;2023-08-24T11:39:18;99179.91;;;37.87;26.58
17311;BME280;8773;43.300;0.394;2023-08-24T11:41:56;99184.88;;;37.94;26.97
17311;BME280;8773;43.300;0.394;2023-08-24T11:44:24;99178.69;;;38.13;26.21
17311;BME280;8773;43.300;0.394;2023-08-24T11:46:56;99179.44;;;38.38;26.99
17311;BME280;8773;43.300;0.394;2023-08-24T11:49:26;99182.16;;;38.22;26.78
17311;BME280;8773;43.300;0.394;2023-08-24T11:51:54;99179.63;;;38.17;26.87
17311;BME280;8773;43.300;0.394;2023-08-24T11:54:21;99177.81;;;37.84;27.60
17311;BME280;8773;43.300;0.394;2023-08-24T11:56:49;99176.66;;;37.85;28.37
17311;BME280;8773;43.300;0.394;2023-08-24T11:59:16;99186.53;;;37.83;28.93
17311;BME280;8773;43.300;0.394;2023-08-24T12:01:45;99173.13;;;38.13;28.64
17311;BME280;8773;43.300;0.394;2023-08-24T12:04:13;99174.84;;;38.17;28.71
17311;BME280;8773;43.300;0.394;2023-08-24T12:06:41;99167.28;;;38.18;27.08
17311;BME280;8773;43.300;0.394;2023-08-24T12:09:09;99178.16;;;38.35;26.58
17311;BME280;8773;43.300;0.394;2023-08-24T12:11:37;99173.41;;;38.36;26.95
17311;BME280;8773;43.300;0.394;2023-08-24T12:14:05;99167.63;;;38.56;26.70
17311;BME280;8773;43.300;0.394;2023-08-24T12:16:33;99169.25;;;38.57;26.52
17311;BME280;8773;43.300;0.394;2023-08-24T12:19:00;99174.41;;;38.43;27.11
17311;BME280;8773;43.300;0.394;2023-08-24T12:21:28;99170.06;;;38.30;28.58
17311;BME280;8773;43.300;0.394;2023-08-24T12:23:58;99158.13;;;38.17;28.52
17311;BME280;8773;43.300;0.394;2023-08-24T12:26:27;99166.09;;;38.31;28.52
17311;BME280;8773;43.300;0.394;2023-08-24T12:29:00;99165.94;;;38.68;27.88
17311;BME280;8773;43.300;0.394;2023-08-24T12:31:28;99169.50;;;38.52;28.11
17311;BME280;8773;43.300;0.394;2023-08-24T12:34:00;99166.34;;;38.26;28.24
17311;BME280;8773;43.300;0.394;2023-08-24T12:36:28;99167.53;;;38.13;28.67
17311;BME280;8773;43.300;0.394;2023-08-24T12:38:55;99162.78;;;38.13;28.42
17311;BME280;8773;43.300;0.394;2023-08-24T12:41:24;99159.84;;;38.22;27.99
17311;BME280;8773;43.300;0.394;2023-08-24T12:43:51;99162.66;;;38.10;27.38
17311;BME280;8773;43.300;0.394;2023-08-24T12:46:19;99158.56;;;38.19;28.71
17311;BME280;8773;43.300;0.394;2023-08-24T12:48:47;99169.75;;;38.47;29.21
17311;BME280;8773;43.300;0.394;2023-08-24T12:51:14;99167.94;;;38.39;28.34
17311;BME280;8773;43.300;0.394;2023-08-24T12:53:42;99169.69;;;38.31;29.20
17311;BME280;8773;43.300;0.394;2023-08-24T12:56:09;99168.22;;;38.22;29.88
17311;BME280;8773;43.300;0.394;2023-08-24T12:58:38;99173.47;;;38.11;31.07
17311;BME280;8773;43.300;0.394;2023-08-24T13:01:05;99171.84;;;37.98;32.07
17311;BME280;8773;43.300;0.394;2023-08-24T13:03:33;99162.44;;;38.15;31.59
17311;BME280;8773;43.300;0.394;2023-08-24T13:06:00;99162.44;;;38.03;33.46
17311;BME280;8773;43.300;0.394;2023-08-24T13:08:48;99171.53;;;37.99;34.09
17311;BME280;8773;43.300;0.394;2023-08-24T13:11:15;99180.16;;;37.70;35.52
17311;BME280;8773;43.300;0.394;2023-08-24T13:13:44;99170.03;;;37.90;35.53
17311;BME280;8773;43.300;0.394;2023-08-24T13:16:11;99164.47;;;37.78;35.52
17311;BME280;8773;43.300;0.394;2023-08-24T13:18:39;99168.78;;;37.51;36.35